sensor_id;sensor_type;location;lat;lon;timestamp;P1;durP1;ratioP1;P2;durP2;ratioP2
79308;SDS011;68767;53.078;7.386;2024-02-26T00:00:17;30.33;;;13.00;;
79308;SDS011;68767;53.078;7.386;2024-02-26T00:02:44;29.95;;;12.73;;
79308;SDS011;68767;53.078;7.386;2024-02-26T00:05:11;29.02;;;13.13;;
79308;SDS011;68767;53.078;7.386;2024-02-26T00:07:38;28.05;;;12.95;;
79308;SDS011;68767;53.078;7.386;2024-02-26T00:10:05;31.10;;;12.00;;
79308;SDS011;68767;53.078;7.386;2024-02-26T00:12:33;28.30;;;13.23;;
79308;SDS011;68767;53.078;7.386;2024-02-26T00:15:00;30.58;;;13.13;;
79308;SDS011;68767;53.078;7.386;2024-02-26T00:17:27;30.60;;;13.07;;
79308;SDS011;68767;53.078;7.386;2024-02-26T00:19:54;27.38;;;11.85;;
79308;SDS011;68767;53.078;7.386;2024-02-26T00:22:21;31.23;;;13.05;;
79308;SDS011;68767;53.078;7.386;2024-02-26T00:24:48;30.02;;;13.40;;
79308;SDS011;68767;53.078;7.386;2024-02-26T00:27:15;28.48;;;11.88;;
79308;SDS011;68767;53.078;7.386;2024-02-26T00:29:42;31.92;;;12.27;;
79308;SDS011;68767;53.078;7.386;2024-02-26T00:32:09;35.53;;;13.93;;
79308;SDS011;68767;53.078;7.386;2024-02-26T00:34:36;27.85;;;12.10;;
79308;SDS011;68767;53.078;7.386;2024-02-26T00:37:03;31.50;;;13.10;;
79308;SDS011;68767;53.078;7.386;2024-02-26T00:39:31;32.45;;;13.15;;
79308;SDS011;68767;53.078;7.386;2024-02-26T00:41:58;30.98;;;13.15;;
79308;SDS011;68767;53.078;7.386;2024-02-26T00:44:25;31.63;;;12.63;;
79308;SDS011;68767;53.078;7.386;2024-02-26T00:46:52;29.13;;;13.00;;
79308;SDS011;68767;53.078;7.386;2024-02-26T00:49:19;36.08;;;13.52;;
79308;SDS011;68767;53.078;7.386;2024-02-26T00:51:49;37.58;;;12.88;;
79308;SDS011;68767;53.078;7.386;2024-02-26T00:54:16;36.25;;;13.40;;
79308;SDS011;68767;53.078;7.386;2024-02-26T00:56:43;37.65;;;13.48;;
79308;SDS011;68767;53.078;7.386;2024-02-26T00:59:10;35.90;;;14.07;;
79308;SDS011;68767;53.078;7.386;2024-02-26T01:01:37;33.60;;;13.05;;
79308;SDS011;68767;53.078;7.386;2024-02-26T01:04:04;44.28;;;15.25;;
79308;SDS011;68767;53.078;7.386;2024-02-26T01:06:32;40.95;;;14.27;;
79308;SDS011;68767;53.078;7.386;2024-02-26T01:08:59;43.25;;;15.07;;
79308;SDS011;68767;53.078;7.386;2024-02-26T01:11:26;42.60;;;14.77;;
79308;SDS011;68767;53.078;7.386;2024-02-26T01:13:53;45.28;;;14.98;;
79308;SDS011;68767;53.078;7.386;2024-02-26T01:16:23;45.60;;;16.40;;
79308;SDS011;68767;53.078;7.386;2024-02-26T01:18:50;47.42;;;15.23;;
79308;SDS011;68767;53.078;7.386;2024-02-26T01:21:17;51.47;;;17.25;;
79308;SDS011;68767;53.078;7.386;2024-02-26T01:23:45;42.05;;;14.05;;
79308;SDS011;68767;53.078;7.386;2024-02-26T01:26:12;46.95;;;14.93;;
79308;SDS011;68767;53.078;7.386;2024-02-26T01:28:39;44.65;;;14.93;;
79308;SDS011;68767;53.078;7.386;2024-02-26T01:31:05;46.53;;;16.00;;
79308;SDS011;68767;53.078;7.386;2024-02-26T01:33:35;50.58;;;16.88;;
79308;SDS011;68767;53.078;7.386;2024-02-26T01:36:03;52.03;;;16.88;;
79308;SDS011;68767;53.078;7.386;2024-02-26T01:38:30;45.38;;;13.82;;
79308;SDS011;68767;53.078;7.386;2024-02-26T01:40:57;51.90;;;17.05;;
79308;SDS011;68767;53.078;7.386;2024-02-26T01:43:24;50.15;;;16.48;;
79308;SDS011;68767;53.078;7.386;2024-02-26T01:45:51;58.05;;;19.65;;
79308;SDS011;68767;53.078;7.386;2024-02-26T01:48:18;53.78;;;18.75;;
79308;SDS011;68767;53.078;7.386;2024-02-26T01:50:45;48.15;;;17.63;;
79308;SDS011;68767;53.078;7.386;2024-02-26T01:53:12;54.60;;;19.88;;
79308;SDS011;68767;53.078;7.386;2024-02-26T01:55:39;52.28;;;15.85;;
79308;SDS011;68767;53.078;7.386;2024-02-26T01:58:07;61.15;;;19.65;;
79308;SDS011;68767;53.078;7.386;2024-02-26T02:00:34;60.35;;;18.42;;
79308;SDS011;68767;53.078;7.386;2024-02-26T02:03:01;57.75;;;19.15;;
79308;SDS011;68767;53.078;7.386;2024-02-26T02:05:30;54.53;;;19.45;;
79308;SDS011;68767;53.078;7.386;2024-02-26T02:07:57;58.92;;;18.77;;
79308;SDS011;68767;53.078;7.386;2024-02-26T02:10:26;65.43;;;20.50;;
79308;SDS011;68767;53.078;7.386;2024-02-26T02:12:54;63.95;;;19.65;;
79308;SDS011;68767;53.078;7.386;2024-02-26T02:15:21;64.22;;;18.05;;
79308;SDS011;68767;53.078;7.386;2024-02-26T02:17:48;57.90;;;17.90;;
79308;SDS011;68767;53.078;7.386;2024-02-26T02:20:16;60.47;;;18.98;;
79308;SDS011;68767;53.078;7.386;2024-02-26T02:22:45;57.35;;;19.60;;
79308;SDS011;68767;53.078;7.386;2024-02-26T02:25:13;64.70;;;19.02;;
79308;SDS011;68767;53.078;7.386;2024-02-26T02:27:40;64.78;;;18.20;;
79308;SDS011;68767;53.078;7.386;2024-02-26T02:30:09;54.72;;;17.52;;
79308;SDS011;68767;53.078;7.386;2024-02-26T02:32:37;62.67;;;20.02;;
79308;SDS011;68767;53.078;7.386;2024-02-26T02:35:08;67.57;;;18.80;;
79308;SDS011;68767;53.078;7.386;2024-02-26T02:37:35;57.22;;;17.45;;
79308;SDS011;68767;53.078;7.386;2024-02-26T02:40:03;62.00;;;18.55;;
79308;SDS011;68767;53.078;7.386;2024-02-26T02:42:31;74.13;;;20.35;;
79308;SDS011;68767;53.078;7.386;2024-02-26T02:44:58;67.38;;;22.95;;
79308;SDS011;68767;53.078;7.386;2024-02-26T02:47:26;68.53;;;19.48;;
79308;SDS011;68767;53.078;7.386;2024-02-26T02:49:53;70.03;;;20.90;;
79308;SDS011;68767;53.078;7.386;2024-02-26T02:52:20;67.18;;;21.00;;
79308;SDS011;68767;53.078;7.386;2024-02-26T02:54:47;67.25;;;19.60;;
79308;SDS011;68767;53.078;7.386;2024-02-26T02:57:13;77.07;;;21.52;;
79308;SDS011;68767;53.078;7.386;2024-02-26T02:59:40;72.38;;;20.90;;
79308;SDS011;68767;53.078;7.386;2024-02-26T03:02:07;80.70;;;22.30;;
79308;SDS011;68767;53.078;7.386;2024-02-26T03:04:35;78.95;;;22.63;;
79308;SDS011;68767;53.078;7.386;2024-02-26T03:07:02;77.15;;;22.30;;
79308;SDS011;68767;53.078;7.386;2024-02-26T03:09:29;62.72;;;19.30;;
79308;SDS011;68767;53.078;7.386;2024-02-26T03:11:56;68.18;;;19.77;;
79308;SDS011;68767;53.078;7.386;2024-02-26T03:14:23;70.78;;;20.55;;
79308;SDS011;68767;53.078;7.386;2024-02-26T03:16:52;66.35;;;19.92;;
79308;SDS011;68767;53.078;7.386;2024-02-26T03:19:20;67.80;;;20.70;;
79308;SDS011;68767;53.078;7.386;2024-02-26T03:21:47;72.40;;;21.35;;
79308;SDS011;68767;53.078;7.386;2024-02-26T03:24:14;58.30;;;17.52;;
79308;SDS011;68767;53.078;7.386;2024-02-26T03:26:41;52.92;;;16.65;;
79308;SDS011;68767;53.078;7.386;2024-02-26T03:29:09;47.67;;;15.07;;
79308;SDS011;68767;53.078;7.386;2024-02-26T03:31:37;54.95;;;18.55;;
79308;SDS011;68767;53.078;7.386;2024-02-26T03:34:04;49.95;;;16.88;;
79308;SDS011;68767;53.078;7.386;2024-02-26T03:36:31;56.80;;;17.88;;
79308;SDS011;68767;53.078;7.386;2024-02-26T03:38:58;56.13;;;18.52;;
79308;SDS011;68767;53.078;7.386;2024-02-26T03:41:25;50.90;;;16.67;;
79308;SDS011;68767;53.078;7.386;2024-02-26T03:43:52;49.53;;;16.02;;
79308;SDS011;68767;53.078;7.386;2024-02-26T03:46:20;44.53;;;15.75;;
79308;SDS011;68767;53.078;7.386;2024-02-26T03:48:47;46.63;;;16.60;;
79308;SDS011;68767;53.078;7.386;2024-02-26T03:51:14;45.70;;;15.75;;
79308;SDS011;68767;53.078;7.386;2024-02-26T03:53:41;51.40;;;15.52;;
79308;SDS011;68767;53.078;7.386;2024-02-26T03:56:08;48.20;;;17.60;;
79308;SDS011;68767;53.078;7.386;2024-02-26T03:58:38;46.85;;;15.82;;
79308;SDS011;68767;53.078;7.386;2024-02-26T04:01:08;39.50;;;14.20;;
79308;SDS011;68767;53.078;7.386;2024-02-26T04:03:36;41.30;;;14.75;;
79308;SDS011;68767;53.078;7.386;2024-02-26T04:06:03;45.22;;;15.23;;
79308;SDS011;68767;53.078;7.386;2024-02-26T04:08:30;41.20;;;14.75;;
79308;SDS011;68767;53.078;7.386;2024-02-26T04:10:57;42.47;;;13.20;;
79308;SDS011;68767;53.078;7.386;2024-02-26T04:13:25;35.90;;;12.90;;
79308;SDS011;68767;53.078;7.386;2024-02-26T04:15:52;37.80;;;13.00;;
79308;SDS011;68767;53.078;7.386;2024-02-26T04:18:19;29.45;;;11.45;;
79308;SDS011;68767;53.078;7.386;2024-02-26T04:20:46;32.80;;;11.48;;
79308;SDS011;68767;53.078;7.386;2024-02-26T04:23:13;36.53;;;13.10;;
79308;SDS011;68767;53.078;7.386;2024-02-26T04:25:40;28.40;;;10.45;;
79308;SDS011;68767;53.078;7.386;2024-02-26T04:28:07;28.90;;;10.43;;
79308;SDS011;68767;53.078;7.386;2024-02-26T04:30:34;29.00;;;10.38;;
79308;SDS011;68767;53.078;7.386;2024-02-26T04:33:01;28.73;;;10.45;;
79308;SDS011;68767;53.078;7.386;2024-02-26T04:35:29;26.58;;;10.75;;
79308;SDS011;68767;53.078;7.386;2024-02-26T04:37:56;28.65;;;11.10;;
79308;SDS011;68767;53.078;7.386;2024-02-26T04:40:23;23.70;;;10.05;;
79308;SDS011;68767;53.078;7.386;2024-02-26T04:42:50;26.02;;;10.63;;
79308;SDS011;68767;53.078;7.386;2024-02-26T04:45:18;30.08;;;10.35;;
79308;SDS011;68767;53.078;7.386;2024-02-26T04:47:45;30.92;;;10.30;;
79308;SDS011;68767;53.078;7.386;2024-02-26T04:50:13;27.17;;;9.55;;
79308;SDS011;68767;53.078;7.386;2024-02-26T04:52:40;26.60;;;10.20;;
79308;SDS011;68767;53.078;7.386;2024-02-26T04:55:07;21.40;;;9.13;;
79308;SDS011;68767;53.078;7.386;2024-02-26T04:57:35;26.42;;;10.20;;
79308;SDS011;68767;53.078;7.386;2024-02-26T05:00:02;25.67;;;9.27;;
79308;SDS011;68767;53.078;7.386;2024-02-26T05:02:31;21.88;;;9.77;;
79308;SDS011;68767;53.078;7.386;2024-02-26T05:05:00;24.38;;;9.63;;
79308;SDS011;68767;53.078;7.386;2024-02-26T05:07:27;25.70;;;10.15;;
79308;SDS011;68767;53.078;7.386;2024-02-26T05:09:54;25.55;;;9.05;;
79308;SDS011;68767;53.078;7.386;2024-02-26T05:12:22;24.13;;;9.00;;
79308;SDS011;68767;53.078;7.386;2024-02-26T05:14:49;23.25;;;9.52;;
79308;SDS011;68767;53.078;7.386;2024-02-26T05:17:17;22.65;;;9.93;;
79308;SDS011;68767;53.078;7.386;2024-02-26T05:19:44;18.48;;;7.45;;
79308;SDS011;68767;53.078;7.386;2024-02-26T05:22:11;21.35;;;8.20;;
79308;SDS011;68767;53.078;7.386;2024-02-26T05:24:38;22.60;;;9.02;;
79308;SDS011;68767;53.078;7.386;2024-02-26T05:27:05;17.25;;;8.05;;
79308;SDS011;68767;53.078;7.386;2024-02-26T05:29:32;26.75;;;8.25;;
79308;SDS011;68767;53.078;7.386;2024-02-26T05:31:59;19.98;;;8.40;;
79308;SDS011;68767;53.078;7.386;2024-02-26T05:34:27;21.58;;;8.00;;
79308;SDS011;68767;53.078;7.386;2024-02-26T05:36:54;19.50;;;9.18;;
79308;SDS011;68767;53.078;7.386;2024-02-26T05:39:21;20.20;;;8.15;;
79308;SDS011;68767;53.078;7.386;2024-02-26T05:41:48;23.38;;;8.80;;
79308;SDS011;68767;53.078;7.386;2024-02-26T05:44:16;19.85;;;8.10;;
79308;SDS011;68767;53.078;7.386;2024-02-26T05:46:43;20.85;;;8.80;;
79308;SDS011;68767;53.078;7.386;2024-02-26T05:49:10;21.65;;;9.13;;
79308;SDS011;68767;53.078;7.386;2024-02-26T05:51:38;17.05;;;8.13;;
79308;SDS011;68767;53.078;7.386;2024-02-26T05:54:05;18.23;;;7.65;;
79308;SDS011;68767;53.078;7.386;2024-02-26T05:56:32;21.35;;;7.32;;
79308;SDS011;68767;53.078;7.386;2024-02-26T05:58:59;17.08;;;7.97;;
79308;SDS011;68767;53.078;7.386;2024-02-26T06:01:26;17.02;;;7.70;;
79308;SDS011;68767;53.078;7.386;2024-02-26T06:03:53;17.50;;;7.57;;
79308;SDS011;68767;53.078;7.386;2024-02-26T06:06:20;21.00;;;7.60;;
79308;SDS011;68767;53.078;7.386;2024-02-26T06:08:49;17.75;;;7.70;;
79308;SDS011;68767;53.078;7.386;2024-02-26T06:11:17;17.42;;;7.65;;
79308;SDS011;68767;53.078;7.386;2024-02-26T06:13:44;15.55;;;7.13;;
79308;SDS011;68767;53.078;7.386;2024-02-26T06:16:11;19.05;;;7.32;;
79308;SDS011;68767;53.078;7.386;2024-02-26T06:18:38;17.83;;;7.25;;
79308;SDS011;68767;53.078;7.386;2024-02-26T06:21:08;14.43;;;6.30;;
79308;SDS011;68767;53.078;7.386;2024-02-26T06:23:36;20.70;;;7.25;;
79308;SDS011;68767;53.078;7.386;2024-02-26T06:26:04;16.67;;;6.85;;
79308;SDS011;68767;53.078;7.386;2024-02-26T06:28:31;13.93;;;6.35;;
79308;SDS011;68767;53.078;7.386;2024-02-26T06:31:00;15.50;;;6.63;;
79308;SDS011;68767;53.078;7.386;2024-02-26T06:33:27;13.35;;;6.18;;
79308;SDS011;68767;53.078;7.386;2024-02-26T06:35:54;16.85;;;6.68;;
79308;SDS011;68767;53.078;7.386;2024-02-26T06:38:21;15.38;;;6.10;;
79308;SDS011;68767;53.078;7.386;2024-02-26T06:40:49;15.02;;;6.32;;
79308;SDS011;68767;53.078;7.386;2024-02-26T06:43:16;17.40;;;7.05;;
79308;SDS011;68767;53.078;7.386;2024-02-26T06:45:43;21.40;;;5.95;;
79308;SDS011;68767;53.078;7.386;2024-02-26T06:48:10;14.82;;;6.70;;
79308;SDS011;68767;53.078;7.386;2024-02-26T06:50:37;18.67;;;7.47;;
79308;SDS011;68767;53.078;7.386;2024-02-26T06:53:04;12.13;;;5.65;;
79308;SDS011;68767;53.078;7.386;2024-02-26T06:55:34;13.43;;;6.15;;
79308;SDS011;68767;53.078;7.386;2024-02-26T06:58:01;13.60;;;6.18;;
79308;SDS011;68767;53.078;7.386;2024-02-26T07:00:28;11.13;;;5.90;;
79308;SDS011;68767;53.078;7.386;2024-02-26T07:02:55;10.68;;;5.38;;
79308;SDS011;68767;53.078;7.386;2024-02-26T07:05:22;12.70;;;5.55;;
79308;SDS011;68767;53.078;7.386;2024-02-26T07:07:48;12.57;;;5.82;;
79308;SDS011;68767;53.078;7.386;2024-02-26T07:10:16;14.57;;;5.68;;
79308;SDS011;68767;53.078;7.386;2024-02-26T07:12:43;12.80;;;5.75;;
79308;SDS011;68767;53.078;7.386;2024-02-26T07:15:10;12.95;;;6.07;;
79308;SDS011;68767;53.078;7.386;2024-02-26T07:17:37;14.18;;;5.70;;
79308;SDS011;68767;53.078;7.386;2024-02-26T07:20:08;15.38;;;6.55;;
79308;SDS011;68767;53.078;7.386;2024-02-26T07:22:36;12.18;;;5.03;;
79308;SDS011;68767;53.078;7.386;2024-02-26T07:25:03;12.48;;;5.47;;
79308;SDS011;68767;53.078;7.386;2024-02-26T07:27:30;14.52;;;5.72;;
79308;SDS011;68767;53.078;7.386;2024-02-26T07:29:57;13.60;;;5.25;;
79308;SDS011;68767;53.078;7.386;2024-02-26T07:32:24;11.88;;;5.97;;
79308;SDS011;68767;53.078;7.386;2024-02-26T07:34:51;14.18;;;4.90;;
79308;SDS011;68767;53.078;7.386;2024-02-26T07:37:18;13.07;;;5.45;;
79308;SDS011;68767;53.078;7.386;2024-02-26T07:39:45;11.40;;;5.47;;
79308;SDS011;68767;53.078;7.386;2024-02-26T07:42:12;9.88;;;4.45;;
79308;SDS011;68767;53.078;7.386;2024-02-26T07:44:39;8.18;;;4.65;;
79308;SDS011;68767;53.078;7.386;2024-02-26T07:47:09;12.35;;;5.50;;
79308;SDS011;68767;53.078;7.386;2024-02-26T07:49:36;10.07;;;4.95;;
79308;SDS011;68767;53.078;7.386;2024-02-26T07:52:05;10.35;;;4.90;;
79308;SDS011;68767;53.078;7.386;2024-02-26T07:54:32;9.27;;;4.70;;
79308;SDS011;68767;53.078;7.386;2024-02-26T07:56:59;12.77;;;5.25;;
79308;SDS011;68767;53.078;7.386;2024-02-26T07:59:26;12.38;;;5.78;;
79308;SDS011;68767;53.078;7.386;2024-02-26T08:01:53;10.00;;;5.00;;
79308;SDS011;68767;53.078;7.386;2024-02-26T08:04:24;15.15;;;5.40;;
79308;SDS011;68767;53.078;7.386;2024-02-26T08:06:53;11.38;;;4.57;;
79308;SDS011;68767;53.078;7.386;2024-02-26T08:09:20;9.80;;;4.10;;
79308;SDS011;68767;53.078;7.386;2024-02-26T08:11:48;10.32;;;5.20;;
79308;SDS011;68767;53.078;7.386;2024-02-26T08:14:14;9.75;;;4.75;;
79308;SDS011;68767;53.078;7.386;2024-02-26T08:16:42;11.23;;;4.22;;
79308;SDS011;68767;53.078;7.386;2024-02-26T08:19:09;10.32;;;4.93;;
79308;SDS011;68767;53.078;7.386;2024-02-26T08:21:38;10.52;;;4.68;;
79308;SDS011;68767;53.078;7.386;2024-02-26T08:24:05;8.40;;;3.78;;
79308;SDS011;68767;53.078;7.386;2024-02-26T08:26:32;8.43;;;3.97;;
79308;SDS011;68767;53.078;7.386;2024-02-26T08:28:59;7.55;;;3.90;;
79308;SDS011;68767;53.078;7.386;2024-02-26T08:31:26;10.30;;;4.78;;
79308;SDS011;68767;53.078;7.386;2024-02-26T08:33:54;10.35;;;4.32;;
79308;SDS011;68767;53.078;7.386;2024-02-26T08:36:21;9.30;;;4.00;;
79308;SDS011;68767;53.078;7.386;2024-02-26T08:38:48;10.82;;;5.63;;
79308;SDS011;68767;53.078;7.386;2024-02-26T08:41:15;9.48;;;4.30;;
79308;SDS011;68767;53.078;7.386;2024-02-26T08:43:42;10.32;;;4.75;;
79308;SDS011;68767;53.078;7.386;2024-02-26T08:46:09;10.05;;;4.80;;
79308;SDS011;68767;53.078;7.386;2024-02-26T08:51:07;9.10;;;4.40;;
79308;SDS011;68767;53.078;7.386;2024-02-26T08:53:35;9.30;;;4.03;;
79308;SDS011;68767;53.078;7.386;2024-02-26T08:56:09;8.55;;;3.83;;
79308;SDS011;68767;53.078;7.386;2024-02-26T08:58:38;7.13;;;3.83;;
79308;SDS011;68767;53.078;7.386;2024-02-26T09:01:05;8.27;;;4.30;;
79308;SDS011;68767;53.078;7.386;2024-02-26T09:03:32;7.22;;;3.85;;
79308;SDS011;68767;53.078;7.386;2024-02-26T09:05:59;11.32;;;4.75;;
79308;SDS011;68767;53.078;7.386;2024-02-26T09:08:26;10.07;;;4.75;;
79308;SDS011;68767;53.078;7.386;2024-02-26T09:10:53;9.63;;;4.70;;
79308;SDS011;68767;53.078;7.386;2024-02-26T09:13:20;13.10;;;5.50;;
79308;SDS011;68767;53.078;7.386;2024-02-26T09:15:47;10.30;;;5.15;;
79308;SDS011;68767;53.078;7.386;2024-02-26T09:18:14;8.88;;;4.50;;
79308;SDS011;68767;53.078;7.386;2024-02-26T09:20:41;9.70;;;4.30;;
79308;SDS011;68767;53.078;7.386;2024-02-26T09:23:09;10.75;;;4.80;;
79308;SDS011;68767;53.078;7.386;2024-02-26T09:25:36;7.80;;;3.67;;
79308;SDS011;68767;53.078;7.386;2024-02-26T09:28:03;8.77;;;4.65;;
79308;SDS011;68767;53.078;7.386;2024-02-26T09:30:30;9.85;;;4.88;;
79308;SDS011;68767;53.078;7.386;2024-02-26T09:32:57;11.25;;;5.25;;
79308;SDS011;68767;53.078;7.386;2024-02-26T09:35:24;9.80;;;5.00;;
79308;SDS011;68767;53.078;7.386;2024-02-26T09:37:53;9.52;;;4.30;;
79308;SDS011;68767;53.078;7.386;2024-02-26T09:40:20;10.55;;;4.13;;
79308;SDS011;68767;53.078;7.386;2024-02-26T09:42:48;9.52;;;5.05;;
79308;SDS011;68767;53.078;7.386;2024-02-26T09:45:23;11.30;;;5.10;;
79308;SDS011;68767;53.078;7.386;2024-02-26T09:47:55;10.05;;;4.50;;
79308;SDS011;68767;53.078;7.386;2024-02-26T09:50:23;9.05;;;4.75;;
79308;SDS011;68767;53.078;7.386;2024-02-26T09:52:50;10.10;;;4.90;;
79308;SDS011;68767;53.078;7.386;2024-02-26T09:55:18;9.20;;;4.57;;
79308;SDS011;68767;53.078;7.386;2024-02-26T09:57:46;8.35;;;4.60;;
79308;SDS011;68767;53.078;7.386;2024-02-26T10:00:14;11.05;;;5.72;;
79308;SDS011;68767;53.078;7.386;2024-02-26T10:02:46;8.98;;;4.28;;
79308;SDS011;68767;53.078;7.386;2024-02-26T10:05:16;10.52;;;4.85;;
79308;SDS011;68767;53.078;7.386;2024-02-26T10:07:46;9.77;;;4.90;;
79308;SDS011;68767;53.078;7.386;2024-02-26T10:10:14;8.38;;;4.05;;
79308;SDS011;68767;53.078;7.386;2024-02-26T10:12:41;9.60;;;4.38;;
79308;SDS011;68767;53.078;7.386;2024-02-26T10:15:08;10.52;;;4.95;;
79308;SDS011;68767;53.078;7.386;2024-02-26T10:17:36;9.13;;;4.75;;
79308;SDS011;68767;53.078;7.386;2024-02-26T10:20:14;10.95;;;6.00;;
79308;SDS011;68767;53.078;7.386;2024-02-26T10:22:44;11.75;;;4.80;;
79308;SDS011;68767;53.078;7.386;2024-02-26T10:25:12;11.25;;;5.10;;
79308;SDS011;68767;53.078;7.386;2024-02-26T10:27:42;9.80;;;4.55;;
79308;SDS011;68767;53.078;7.386;2024-02-26T10:32:47;12.65;;;5.70;;
79308;SDS011;68767;53.078;7.386;2024-02-26T10:35:16;10.50;;;5.03;;
79308;SDS011;68767;53.078;7.386;2024-02-26T10:37:49;8.48;;;4.43;;
79308;SDS011;68767;53.078;7.386;2024-02-26T10:40:17;11.45;;;5.50;;
79308;SDS011;68767;53.078;7.386;2024-02-26T10:42:45;10.85;;;4.57;;
79308;SDS011;68767;53.078;7.386;2024-02-26T10:45:16;11.23;;;4.95;;
79308;SDS011;68767;53.078;7.386;2024-02-26T10:50:12;12.52;;;5.13;;
79308;SDS011;68767;53.078;7.386;2024-02-26T10:52:42;9.35;;;4.40;;
79308;SDS011;68767;53.078;7.386;2024-02-26T10:55:11;12.75;;;5.97;;
79308;SDS011;68767;53.078;7.386;2024-02-26T10:57:47;12.65;;;5.40;;
79308;SDS011;68767;53.078;7.386;2024-02-26T11:00:18;11.25;;;5.45;;
79308;SDS011;68767;53.078;7.386;2024-02-26T11:02:45;11.65;;;5.13;;
79308;SDS011;68767;53.078;7.386;2024-02-26T11:05:14;11.00;;;5.25;;
79308;SDS011;68767;53.078;7.386;2024-02-26T11:07:41;11.43;;;5.30;;
79308;SDS011;68767;53.078;7.386;2024-02-26T11:10:09;11.63;;;5.40;;
79308;SDS011;68767;53.078;7.386;2024-02-26T11:12:39;14.55;;;6.78;;
79308;SDS011;68767;53.078;7.386;2024-02-26T11:15:08;12.30;;;5.82;;
79308;SDS011;68767;53.078;7.386;2024-02-26T11:17:36;10.70;;;4.38;;
79308;SDS011;68767;53.078;7.386;2024-02-26T11:20:05;14.57;;;5.18;;
79308;SDS011;68767;53.078;7.386;2024-02-26T11:22:39;13.82;;;4.97;;
79308;SDS011;68767;53.078;7.386;2024-02-26T11:25:07;8.65;;;4.32;;
79308;SDS011;68767;53.078;7.386;2024-02-26T11:27:37;12.88;;;4.88;;
79308;SDS011;68767;53.078;7.386;2024-02-26T11:30:13;11.52;;;4.78;;
79308;SDS011;68767;53.078;7.386;2024-02-26T11:32:44;11.50;;;5.60;;
79308;SDS011;68767;53.078;7.386;2024-02-26T11:35:13;8.27;;;3.75;;
79308;SDS011;68767;53.078;7.386;2024-02-26T11:37:50;11.70;;;5.10;;
79308;SDS011;68767;53.078;7.386;2024-02-26T11:40:19;10.95;;;5.07;;
79308;SDS011;68767;53.078;7.386;2024-02-26T11:42:46;10.02;;;4.70;;
79308;SDS011;68767;53.078;7.386;2024-02-26T11:48:16;9.98;;;4.93;;
79308;SDS011;68767;53.078;7.386;2024-02-26T11:50:47;11.65;;;4.97;;
79308;SDS011;68767;53.078;7.386;2024-02-26T11:58:39;13.77;;;5.80;;
79308;SDS011;68767;53.078;7.386;2024-02-26T12:04:06;12.68;;;5.00;;
79308;SDS011;68767;53.078;7.386;2024-02-26T12:06:42;10.45;;;5.35;;
79308;SDS011;68767;53.078;7.386;2024-02-26T12:09:12;10.13;;;5.18;;
79308;SDS011;68767;53.078;7.386;2024-02-26T12:11:40;11.93;;;5.40;;
79308;SDS011;68767;53.078;7.386;2024-02-26T12:14:09;11.93;;;5.00;;
79308;SDS011;68767;53.078;7.386;2024-02-26T12:16:39;10.50;;;5.35;;
79308;SDS011;68767;53.078;7.386;2024-02-26T12:19:09;10.60;;;4.53;;
79308;SDS011;68767;53.078;7.386;2024-02-26T12:21:37;10.38;;;4.75;;
79308;SDS011;68767;53.078;7.386;2024-02-26T12:24:09;11.85;;;4.90;;
79308;SDS011;68767;53.078;7.386;2024-02-26T12:26:40;10.45;;;5.18;;
79308;SDS011;68767;53.078;7.386;2024-02-26T12:29:08;11.77;;;5.22;;
79308;SDS011;68767;53.078;7.386;2024-02-26T12:31:36;10.93;;;5.57;;
79308;SDS011;68767;53.078;7.386;2024-02-26T12:34:05;15.25;;;6.65;;
79308;SDS011;68767;53.078;7.386;2024-02-26T12:36:33;14.88;;;5.93;;
79308;SDS011;68767;53.078;7.386;2024-02-26T12:39:05;13.68;;;5.25;;
79308;SDS011;68767;53.078;7.386;2024-02-26T12:41:34;13.43;;;5.70;;
79308;SDS011;68767;53.078;7.386;2024-02-26T12:44:01;12.13;;;5.78;;
79308;SDS011;68767;53.078;7.386;2024-02-26T12:46:29;12.57;;;5.07;;
79308;SDS011;68767;53.078;7.386;2024-02-26T12:48:57;10.63;;;5.18;;
79308;SDS011;68767;53.078;7.386;2024-02-26T12:51:26;11.35;;;5.70;;
79308;SDS011;68767;53.078;7.386;2024-02-26T12:53:54;13.77;;;6.13;;
79308;SDS011;68767;53.078;7.386;2024-02-26T12:56:23;10.60;;;5.35;;
79308;SDS011;68767;53.078;7.386;2024-02-26T12:58:53;12.65;;;5.72;;
79308;SDS011;68767;53.078;7.386;2024-02-26T13:01:22;11.57;;;4.90;;
79308;SDS011;68767;53.078;7.386;2024-02-26T13:03:51;11.57;;;6.00;;
79308;SDS011;68767;53.078;7.386;2024-02-26T13:06:19;12.27;;;6.53;;
79308;SDS011;68767;53.078;7.386;2024-02-26T13:08:48;12.27;;;5.30;;
79308;SDS011;68767;53.078;7.386;2024-02-26T13:11:16;12.65;;;6.47;;
79308;SDS011;68767;53.078;7.386;2024-02-26T13:13:47;10.85;;;5.80;;
79308;SDS011;68767;53.078;7.386;2024-02-26T13:16:15;15.27;;;6.38;;
79308;SDS011;68767;53.078;7.386;2024-02-26T13:18:43;15.75;;;7.07;;
79308;SDS011;68767;53.078;7.386;2024-02-26T13:21:12;11.38;;;6.78;;
79308;SDS011;68767;53.078;7.386;2024-02-26T13:23:40;10.98;;;5.88;;
79308;SDS011;68767;53.078;7.386;2024-02-26T13:26:09;14.38;;;7.43;;
79308;SDS011;68767;53.078;7.386;2024-02-26T13:28:39;13.32;;;6.78;;
79308;SDS011;68767;53.078;7.386;2024-02-26T13:31:09;11.57;;;6.15;;
79308;SDS011;68767;53.078;7.386;2024-02-26T13:33:36;14.02;;;6.82;;
79308;SDS011;68767;53.078;7.386;2024-02-26T13:36:03;13.20;;;6.82;;
79308;SDS011;68767;53.078;7.386;2024-02-26T13:38:31;15.15;;;7.03;;
79308;SDS011;68767;53.078;7.386;2024-02-26T13:40:58;17.02;;;7.63;;
79308;SDS011;68767;53.078;7.386;2024-02-26T13:43:25;14.88;;;6.72;;
79308;SDS011;68767;53.078;7.386;2024-02-26T13:45:52;18.23;;;7.47;;
79308;SDS011;68767;53.078;7.386;2024-02-26T13:48:19;15.02;;;7.18;;
79308;SDS011;68767;53.078;7.386;2024-02-26T13:50:47;15.40;;;7.28;;
79308;SDS011;68767;53.078;7.386;2024-02-26T13:53:14;17.63;;;7.38;;
79308;SDS011;68767;53.078;7.386;2024-02-26T13:55:44;16.25;;;7.78;;
79308;SDS011;68767;53.078;7.386;2024-02-26T13:58:12;18.08;;;7.53;;
79308;SDS011;68767;53.078;7.386;2024-02-26T14:00:43;17.10;;;7.78;;
79308;SDS011;68767;53.078;7.386;2024-02-26T14:03:10;17.92;;;7.30;;
79308;SDS011;68767;53.078;7.386;2024-02-26T14:05:38;14.82;;;7.10;;
79308;SDS011;68767;53.078;7.386;2024-02-26T14:08:05;15.50;;;7.57;;
79308;SDS011;68767;53.078;7.386;2024-02-26T14:10:32;17.45;;;7.95;;
79308;SDS011;68767;53.078;7.386;2024-02-26T14:13:00;17.20;;;7.55;;
79308;SDS011;68767;53.078;7.386;2024-02-26T14:15:27;18.17;;;8.40;;
79308;SDS011;68767;53.078;7.386;2024-02-26T14:17:56;15.27;;;7.65;;
79308;SDS011;68767;53.078;7.386;2024-02-26T14:20:24;17.42;;;7.55;;
79308;SDS011;68767;53.078;7.386;2024-02-26T14:22:52;16.85;;;7.57;;
79308;SDS011;68767;53.078;7.386;2024-02-26T14:25:20;17.38;;;7.70;;
79308;SDS011;68767;53.078;7.386;2024-02-26T14:27:48;18.02;;;8.15;;
79308;SDS011;68767;53.078;7.386;2024-02-26T14:30:15;18.45;;;8.85;;
79308;SDS011;68767;53.078;7.386;2024-02-26T14:32:43;17.98;;;8.25;;
79308;SDS011;68767;53.078;7.386;2024-02-26T14:35:11;20.33;;;8.13;;
79308;SDS011;68767;53.078;7.386;2024-02-26T14:37:43;16.20;;;7.63;;
79308;SDS011;68767;53.078;7.386;2024-02-26T14:40:15;18.75;;;7.55;;
79308;SDS011;68767;53.078;7.386;2024-02-26T14:42:43;20.42;;;8.27;;
79308;SDS011;68767;53.078;7.386;2024-02-26T14:45:11;19.50;;;8.65;;
79308;SDS011;68767;53.078;7.386;2024-02-26T14:47:38;18.27;;;7.78;;
79308;SDS011;68767;53.078;7.386;2024-02-26T14:50:06;19.33;;;8.77;;
79308;SDS011;68767;53.078;7.386;2024-02-26T14:52:34;18.02;;;8.57;;